CFS Alert, Nunavut

Past 24 Hour Conditions

Date / Time
(EST)
Conditions Temp
(°C)
Humidity
(%)
Dew Point
(°C)
Wind
(km/h)
Pressure
(kPa)
Vis
(km)
Wind Chill
26 November 2014
19:00 N/A -25 78 -28 WNW 11 100.0 N/A -34
18:00 N/A -25 79 -27 WNW 10 100.0 N/A -33
17:00 N/A -24 80 -27 WNW 11 100.0 N/A -33
16:00 N/A -25 78 -28 W 9 100.0 N/A -33
15:00 Light Snow -23   72 -27 WNW 13 99.9 11 -32
14:00 Light Snow -24 70 -28 WNW 15 99.8 16 -34
13:00 Light Snow -23   71 -27 W 13 99.8 16 -33
12:00 Light Snow -24 70 -28 W 15 99.8 16 -34
11:00 Light Snow -24 70 -28 W 15 99.8 16 -34
10:00 Light Snow -24 70 -28 W 9 99.8 16 -31
9:00 Light Snow -24 71 -27 W 9 99.8 16 -31
8:00 Light Snow -24 70 -28 W 9 99.8 16 -32
7:00 N/A -24 79 -27 WNW 6 99.9 N/A -30
6:00 N/A -25 79 -27 WNW 6 99.9 N/A -30
5:00 N/A -24 80 -26 W 3 99.9 N/A -27
4:00 N/A -25 79 -27 WNW 7 99.9 N/A -31
3:00 N/A -26 78 -29 WNW 8 99.8 N/A -33
2:00 N/A -28   76 -31 WNW 9 99.9 N/A -36
1:00 N/A -27 77 -30 WNW 2 99.8 N/A -29
00:00 N/A -26 77 -29 ESE 4 99.8 N/A -30
25 November 2014
23:00 N/A -24 80 -27 E 8 99.7 N/A -31
22:00 N/A -25 78 -28 W 2 99.7 N/A -27
21:00 N/A -24 80 -26 E 3 99.7 N/A -26
20:00 N/A -25 78 -27 SW 2 99.7 N/A -27
19:00 N/A -23   81 -25 ESE 9 99.7 N/A -30
N/A Not available
↑ Highest temperature
↓ Lowest temperature
* Value not significant.

If you require additional historical weather information, please visit Climate Data Online.

Date modified: